sensor_id;sensor_type;location;lat;lon;timestamp;temperature;humidity
3334;DHT22;1679;50.392;8.008;2023-02-25T00:00:24;3.70;99.90
3334;DHT22;1679;50.392;8.008;2023-02-25T00:02:49;3.70;99.90
3334;DHT22;1679;50.392;8.008;2023-02-25T00:05:16;3.70;99.90
3334;DHT22;1679;50.392;8.008;2023-02-25T00:07:44;3.70;99.90
3334;DHT22;1679;50.392;8.008;2023-02-25T00:10:10;3.70;99.90
3334;DHT22;1679;50.392;8.008;2023-02-25T00:12:38;3.70;99.90
3334;DHT22;1679;50.392;8.008;2023-02-25T00:15:04;3.70;99.90
3334;DHT22;1679;50.392;8.008;2023-02-25T00:17:31;3.70;99.90
3334;DHT22;1679;50.392;8.008;2023-02-25T00:19:59;3.70;99.90
3334;DHT22;1679;50.392;8.008;2023-02-25T00:22:25;3.60;99.90
3334;DHT22;1679;50.392;8.008;2023-02-25T00:24:53;3.60;99.90
3334;DHT22;1679;50.392;8.008;2023-02-25T00:27:19;3.50;99.90
3334;DHT22;1679;50.392;8.008;2023-02-25T00:29:45;3.50;99.90
3334;DHT22;1679;50.392;8.008;2023-02-25T00:32:12;3.50;99.90
3334;DHT22;1679;50.392;8.008;2023-02-25T00:34:38;3.50;99.90
3334;DHT22;1679;50.392;8.008;2023-02-25T00:37:03;3.60;99.90
3334;DHT22;1679;50.392;8.008;2023-02-25T00:39:29;3.50;99.90
3334;DHT22;1679;50.392;8.008;2023-02-25T00:42:13;3.50;99.90
3334;DHT22;1679;50.392;8.008;2023-02-25T00:44:42;3.60;99.90
3334;DHT22;1679;50.392;8.008;2023-02-25T00:47:09;3.60;99.90
3334;DHT22;1679;50.392;8.008;2023-02-25T00:49:34;3.60;99.90
3334;DHT22;1679;50.392;8.008;2023-02-25T00:52:00;3.70;99.90
3334;DHT22;1679;50.392;8.008;2023-02-25T00:54:26;3.70;99.90
3334;DHT22;1679;50.392;8.008;2023-02-25T00:56:52;3.60;99.90
3334;DHT22;1679;50.392;8.008;2023-02-25T00:59:18;3.70;99.90
3334;DHT22;1679;50.392;8.008;2023-02-25T01:01:43;3.70;99.90
3334;DHT22;1679;50.392;8.008;2023-02-25T01:04:09;3.70;99.90
3334;DHT22;1679;50.392;8.008;2023-02-25T01:06:35;3.70;99.90
3334;DHT22;1679;50.392;8.008;2023-02-25T01:09:06;3.70;99.90
3334;DHT22;1679;50.392;8.008;2023-02-25T01:11:39;3.70;99.90
3334;DHT22;1679;50.392;8.008;2023-02-25T01:14:08;3.70;99.90
3334;DHT22;1679;50.392;8.008;2023-02-25T01:16:35;3.70;99.90
3334;DHT22;1679;50.392;8.008;2023-02-25T01:19:07;3.70;99.90
3334;DHT22;1679;50.392;8.008;2023-02-25T01:21:36;3.70;99.90
3334;DHT22;1679;50.392;8.008;2023-02-25T01:24:13;3.80;99.90
3334;DHT22;1679;50.392;8.008;2023-02-25T01:26:40;3.80;99.90
3334;DHT22;1679;50.392;8.008;2023-02-25T01:29:08;3.80;99.90
3334;DHT22;1679;50.392;8.008;2023-02-25T01:31:34;3.70;99.90
3334;DHT22;1679;50.392;8.008;2023-02-25T01:34:01;3.70;99.90
3334;DHT22;1679;50.392;8.008;2023-02-25T01:36:28;3.70;99.90
3334;DHT22;1679;50.392;8.008;2023-02-25T01:38:54;3.70;99.90
3334;DHT22;1679;50.392;8.008;2023-02-25T01:41:21;3.80;99.90
3334;DHT22;1679;50.392;8.008;2023-02-25T01:44:13;3.70;99.90
3334;DHT22;1679;50.392;8.008;2023-02-25T01:46:41;3.70;99.90
3334;DHT22;1679;50.392;8.008;2023-02-25T01:51:43;3.70;99.90
3334;DHT22;1679;50.392;8.008;2023-02-25T01:54:12;3.70;99.90
3334;DHT22;1679;50.392;8.008;2023-02-25T01:56:41;3.70;99.90
3334;DHT22;1679;50.392;8.008;2023-02-25T01:59:09;3.70;99.90
3334;DHT22;1679;50.392;8.008;2023-02-25T02:01:37;3.70;99.90
3334;DHT22;1679;50.392;8.008;2023-02-25T02:04:05;3.70;99.90
3334;DHT22;1679;50.392;8.008;2023-02-25T02:06:36;3.70;99.90
3334;DHT22;1679;50.392;8.008;2023-02-25T02:09:03;3.70;99.90
3334;DHT22;1679;50.392;8.008;2023-02-25T02:11:31;3.70;99.90
3334;DHT22;1679;50.392;8.008;2023-02-25T02:13:57;3.70;99.90
3334;DHT22;1679;50.392;8.008;2023-02-25T02:22:15;3.70;99.90
3334;DHT22;1679;50.392;8.008;2023-02-25T02:27:56;3.70;99.90
3334;DHT22;1679;50.392;8.008;2023-02-25T02:39:12;3.70;99.90
3334;DHT22;1679;50.392;8.008;2023-02-25T02:41:46;3.60;99.90
3334;DHT22;1679;50.392;8.008;2023-02-25T02:44:33;3.60;99.90
3334;DHT22;1679;50.392;8.008;2023-02-25T02:52:30;3.60;99.90
3334;DHT22;1679;50.392;8.008;2023-02-25T02:58:02;3.50;99.90
3334;DHT22;1679;50.392;8.008;2023-02-25T03:00:35;3.60;99.90
3334;DHT22;1679;50.392;8.008;2023-02-25T03:03:07;3.60;99.90
3334;DHT22;1679;50.392;8.008;2023-02-25T03:05:36;3.60;99.90
3334;DHT22;1679;50.392;8.008;2023-02-25T03:08:19;3.60;99.90
3334;DHT22;1679;50.392;8.008;2023-02-25T03:10:46;3.60;99.90
3334;DHT22;1679;50.392;8.008;2023-02-25T03:13:14;3.60;99.90
3334;DHT22;1679;50.392;8.008;2023-02-25T03:15:39;3.60;99.90
3334;DHT22;1679;50.392;8.008;2023-02-25T03:18:22;3.60;99.90
3334;DHT22;1679;50.392;8.008;2023-02-25T03:20:49;3.60;99.90
3334;DHT22;1679;50.392;8.008;2023-02-25T03:23:20;3.50;99.90
3334;DHT22;1679;50.392;8.008;2023-02-25T03:25:52;3.60;99.90
3334;DHT22;1679;50.392;8.008;2023-02-25T03:28:27;3.60;99.90
3334;DHT22;1679;50.392;8.008;2023-02-25T03:31:03;3.60;99.90
3334;DHT22;1679;50.392;8.008;2023-02-25T03:36:18;3.60;99.90
3334;DHT22;1679;50.392;8.008;2023-02-25T03:38:47;3.60;99.90
3334;DHT22;1679;50.392;8.008;2023-02-25T03:41:14;3.50;99.90
3334;DHT22;1679;50.392;8.008;2023-02-25T03:43:45;3.50;99.90
3334;DHT22;1679;50.392;8.008;2023-02-25T03:46:13;3.50;99.90
3334;DHT22;1679;50.392;8.008;2023-02-25T03:48:39;3.40;99.90
3334;DHT22;1679;50.392;8.008;2023-02-25T03:51:05;3.40;99.90
3334;DHT22;1679;50.392;8.008;2023-02-25T03:53:33;3.40;99.90
3334;DHT22;1679;50.392;8.008;2023-02-25T03:56:04;3.40;99.90
3334;DHT22;1679;50.392;8.008;2023-02-25T03:58:33;3.30;99.90
3334;DHT22;1679;50.392;8.008;2023-02-25T04:01:00;3.30;99.90
3334;DHT22;1679;50.392;8.008;2023-02-25T04:03:29;3.30;99.90
3334;DHT22;1679;50.392;8.008;2023-02-25T04:05:55;3.20;99.90
3334;DHT22;1679;50.392;8.008;2023-02-25T04:08:20;3.20;99.90
3334;DHT22;1679;50.392;8.008;2023-02-25T04:10:46;3.20;99.90
3334;DHT22;1679;50.392;8.008;2023-02-25T04:13:14;3.20;99.90
3334;DHT22;1679;50.392;8.008;2023-02-25T04:15:40;3.20;99.90
3334;DHT22;1679;50.392;8.008;2023-02-25T04:18:06;3.20;99.90
3334;DHT22;1679;50.392;8.008;2023-02-25T04:20:32;3.20;99.90
3334;DHT22;1679;50.392;8.008;2023-02-25T04:22:59;3.20;99.90
3334;DHT22;1679;50.392;8.008;2023-02-25T04:25:24;3.20;99.90
3334;DHT22;1679;50.392;8.008;2023-02-25T04:27:50;3.30;99.90
3334;DHT22;1679;50.392;8.008;2023-02-25T04:30:16;3.30;99.90
3334;DHT22;1679;50.392;8.008;2023-02-25T04:32:42;3.30;99.90
3334;DHT22;1679;50.392;8.008;2023-02-25T04:35:08;3.30;99.90
3334;DHT22;1679;50.392;8.008;2023-02-25T04:37:40;3.20;99.90
3334;DHT22;1679;50.392;8.008;2023-02-25T04:40:15;3.20;99.90
3334;DHT22;1679;50.392;8.008;2023-02-25T04:42:42;3.20;99.90
3334;DHT22;1679;50.392;8.008;2023-02-25T04:45:09;3.20;99.90
3334;DHT22;1679;50.392;8.008;2023-02-25T04:47:36;3.20;99.90
3334;DHT22;1679;50.392;8.008;2023-02-25T04:50:03;3.10;99.90
3334;DHT22;1679;50.392;8.008;2023-02-25T04:52:29;3.20;99.90
3334;DHT22;1679;50.392;8.008;2023-02-25T04:54:54;3.20;99.90
3334;DHT22;1679;50.392;8.008;2023-02-25T04:57:21;3.20;99.90
3334;DHT22;1679;50.392;8.008;2023-02-25T04:59:47;3.20;99.90
3334;DHT22;1679;50.392;8.008;2023-02-25T05:02:12;3.20;99.90
3334;DHT22;1679;50.392;8.008;2023-02-25T05:04:38;3.20;99.90
3334;DHT22;1679;50.392;8.008;2023-02-25T05:07:05;3.20;99.90
3334;DHT22;1679;50.392;8.008;2023-02-25T05:09:31;3.30;99.90
3334;DHT22;1679;50.392;8.008;2023-02-25T05:11:58;3.30;99.90
3334;DHT22;1679;50.392;8.008;2023-02-25T05:14:25;3.30;99.90
3334;DHT22;1679;50.392;8.008;2023-02-25T05:16:50;3.30;99.90
3334;DHT22;1679;50.392;8.008;2023-02-25T05:19:18;3.30;99.90
3334;DHT22;1679;50.392;8.008;2023-02-25T05:21:48;3.30;99.90
3334;DHT22;1679;50.392;8.008;2023-02-25T05:24:13;3.30;99.90
3334;DHT22;1679;50.392;8.008;2023-02-25T05:26:40;3.30;99.90
3334;DHT22;1679;50.392;8.008;2023-02-25T05:29:12;3.30;99.90
3334;DHT22;1679;50.392;8.008;2023-02-25T05:31:38;3.40;99.90
3334;DHT22;1679;50.392;8.008;2023-02-25T05:34:03;3.30;99.90
3334;DHT22;1679;50.392;8.008;2023-02-25T05:36:30;3.40;99.90
3334;DHT22;1679;50.392;8.008;2023-02-25T05:38:57;3.40;99.90
3334;DHT22;1679;50.392;8.008;2023-02-25T05:41:23;3.40;99.90
3334;DHT22;1679;50.392;8.008;2023-02-25T05:43:51;3.40;99.90
3334;DHT22;1679;50.392;8.008;2023-02-25T05:46:16;3.50;99.90
3334;DHT22;1679;50.392;8.008;2023-02-25T05:48:43;3.40;99.90
3334;DHT22;1679;50.392;8.008;2023-02-25T05:51:15;3.40;99.90
3334;DHT22;1679;50.392;8.008;2023-02-25T05:53:42;3.40;99.90
3334;DHT22;1679;50.392;8.008;2023-02-25T05:56:15;3.30;99.90
3334;DHT22;1679;50.392;8.008;2023-02-25T05:58:41;3.40;99.90
3334;DHT22;1679;50.392;8.008;2023-02-25T06:01:08;3.40;99.90
3334;DHT22;1679;50.392;8.008;2023-02-25T06:03:36;3.40;99.90
3334;DHT22;1679;50.392;8.008;2023-02-25T06:06:02;3.40;99.90
3334;DHT22;1679;50.392;8.008;2023-02-25T06:08:29;3.40;99.90
3334;DHT22;1679;50.392;8.008;2023-02-25T06:10:56;3.40;99.90
3334;DHT22;1679;50.392;8.008;2023-02-25T06:13:23;3.40;99.90
3334;DHT22;1679;50.392;8.008;2023-02-25T06:15:48;3.40;99.90
3334;DHT22;1679;50.392;8.008;2023-02-25T06:18:14;3.40;99.90
3334;DHT22;1679;50.392;8.008;2023-02-25T06:20:39;3.40;99.90
3334;DHT22;1679;50.392;8.008;2023-02-25T06:23:05;3.40;99.90
3334;DHT22;1679;50.392;8.008;2023-02-25T06:25:31;3.40;99.90
3334;DHT22;1679;50.392;8.008;2023-02-25T06:28:00;3.40;99.90
3334;DHT22;1679;50.392;8.008;2023-02-25T06:30:27;3.40;99.90
3334;DHT22;1679;50.392;8.008;2023-02-25T06:32:53;3.40;99.90
3334;DHT22;1679;50.392;8.008;2023-02-25T06:35:20;3.40;99.90
3334;DHT22;1679;50.392;8.008;2023-02-25T06:37:54;3.40;99.90
3334;DHT22;1679;50.392;8.008;2023-02-25T06:40:21;3.40;99.90
3334;DHT22;1679;50.392;8.008;2023-02-25T06:42:47;3.40;99.90
3334;DHT22;1679;50.392;8.008;2023-02-25T06:45:12;3.40;99.90
3334;DHT22;1679;50.392;8.008;2023-02-25T06:47:38;3.40;99.90
3334;DHT22;1679;50.392;8.008;2023-02-25T06:50:05;3.40;99.90
3334;DHT22;1679;50.392;8.008;2023-02-25T06:52:31;3.30;99.90
3334;DHT22;1679;50.392;8.008;2023-02-25T06:54:58;3.20;99.90
3334;DHT22;1679;50.392;8.008;2023-02-25T06:57:23;3.10;99.90
3334;DHT22;1679;50.392;8.008;2023-02-25T06:59:49;3.10;99.90
3334;DHT22;1679;50.392;8.008;2023-02-25T07:02:15;3.00;99.90
3334;DHT22;1679;50.392;8.008;2023-02-25T07:04:41;3.00;99.90
3334;DHT22;1679;50.392;8.008;2023-02-25T07:07:07;3.00;99.90
3334;DHT22;1679;50.392;8.008;2023-02-25T07:09:33;3.00;99.90
3334;DHT22;1679;50.392;8.008;2023-02-25T07:11:59;3.10;99.90
3334;DHT22;1679;50.392;8.008;2023-02-25T07:14:25;3.00;99.90
3334;DHT22;1679;50.392;8.008;2023-02-25T07:16:51;3.10;99.90
3334;DHT22;1679;50.392;8.008;2023-02-25T07:19:17;3.10;99.90
3334;DHT22;1679;50.392;8.008;2023-02-25T07:21:43;3.10;99.90
3334;DHT22;1679;50.392;8.008;2023-02-25T07:24:11;3.10;99.90
3334;DHT22;1679;50.392;8.008;2023-02-25T07:26:37;3.10;99.90
3334;DHT22;1679;50.392;8.008;2023-02-25T07:29:04;3.20;99.90
3334;DHT22;1679;50.392;8.008;2023-02-25T07:31:31;3.20;99.90
3334;DHT22;1679;50.392;8.008;2023-02-25T07:33:57;3.30;99.90
3334;DHT22;1679;50.392;8.008;2023-02-25T07:36:33;3.30;99.90
3334;DHT22;1679;50.392;8.008;2023-02-25T07:39:00;3.30;99.90
3334;DHT22;1679;50.392;8.008;2023-02-25T07:41:27;3.30;99.90
3334;DHT22;1679;50.392;8.008;2023-02-25T07:43:56;3.40;99.90
3334;DHT22;1679;50.392;8.008;2023-02-25T07:46:21;3.40;99.90
3334;DHT22;1679;50.392;8.008;2023-02-25T07:48:47;3.40;99.90
3334;DHT22;1679;50.392;8.008;2023-02-25T07:51:16;3.50;99.90
3334;DHT22;1679;50.392;8.008;2023-02-25T07:53:43;3.50;99.90
3334;DHT22;1679;50.392;8.008;2023-02-25T07:56:09;3.50;99.90
3334;DHT22;1679;50.392;8.008;2023-02-25T07:58:35;3.60;99.90
3334;DHT22;1679;50.392;8.008;2023-02-25T08:01:10;3.60;99.90
3334;DHT22;1679;50.392;8.008;2023-02-25T08:03:37;3.70;99.90
3334;DHT22;1679;50.392;8.008;2023-02-25T08:06:03;3.70;99.90
3334;DHT22;1679;50.392;8.008;2023-02-25T08:08:34;3.70;99.90
3334;DHT22;1679;50.392;8.008;2023-02-25T08:11:06;3.70;99.90
3334;DHT22;1679;50.392;8.008;2023-02-25T08:13:31;3.60;99.90
3334;DHT22;1679;50.392;8.008;2023-02-25T08:15:57;3.60;99.90
3334;DHT22;1679;50.392;8.008;2023-02-25T08:18:24;3.70;99.90
3334;DHT22;1679;50.392;8.008;2023-02-25T08:20:49;3.70;99.90
3334;DHT22;1679;50.392;8.008;2023-02-25T08:23:15;3.70;99.90
3334;DHT22;1679;50.392;8.008;2023-02-25T08:25:41;3.80;99.90
3334;DHT22;1679;50.392;8.008;2023-02-25T08:28:06;3.80;99.90
3334;DHT22;1679;50.392;8.008;2023-02-25T08:30:32;3.80;99.90
3334;DHT22;1679;50.392;8.008;2023-02-25T08:32:58;3.90;99.90
3334;DHT22;1679;50.392;8.008;2023-02-25T08:35:25;3.90;99.90
3334;DHT22;1679;50.392;8.008;2023-02-25T08:37:51;4.00;99.90
3334;DHT22;1679;50.392;8.008;2023-02-25T08:40:18;4.00;99.90
3334;DHT22;1679;50.392;8.008;2023-02-25T08:42:43;4.10;99.90
3334;DHT22;1679;50.392;8.008;2023-02-25T08:45:09;4.20;99.90
3334;DHT22;1679;50.392;8.008;2023-02-25T08:47:35;4.20;99.90
3334;DHT22;1679;50.392;8.008;2023-02-25T08:50:02;4.30;99.90
3334;DHT22;1679;50.392;8.008;2023-02-25T08:52:29;4.40;99.90
3334;DHT22;1679;50.392;8.008;2023-02-25T08:55:01;4.40;99.90
3334;DHT22;1679;50.392;8.008;2023-02-25T08:57:28;4.50;99.90
3334;DHT22;1679;50.392;8.008;2023-02-25T08:59:54;4.50;99.90
3334;DHT22;1679;50.392;8.008;2023-02-25T09:02:21;4.50;99.90
3334;DHT22;1679;50.392;8.008;2023-02-25T09:04:48;4.50;99.90
3334;DHT22;1679;50.392;8.008;2023-02-25T09:07:16;4.50;99.90
3334;DHT22;1679;50.392;8.008;2023-02-25T09:09:42;4.50;99.90
3334;DHT22;1679;50.392;8.008;2023-02-25T09:12:08;4.40;99.90
3334;DHT22;1679;50.392;8.008;2023-02-25T09:14:35;4.50;99.90
3334;DHT22;1679;50.392;8.008;2023-02-25T09:17:04;4.40;99.90
3334;DHT22;1679;50.392;8.008;2023-02-25T09:19:31;4.50;99.90
3334;DHT22;1679;50.392;8.008;2023-02-25T09:21:56;4.50;99.90
3334;DHT22;1679;50.392;8.008;2023-02-25T09:24:23;4.60;99.90
3334;DHT22;1679;50.392;8.008;2023-02-25T09:26:49;4.60;99.90
3334;DHT22;1679;50.392;8.008;2023-02-25T09:29:15;4.70;99.90
3334;DHT22;1679;50.392;8.008;2023-02-25T09:31:41;4.70;99.90
3334;DHT22;1679;50.392;8.008;2023-02-25T09:34:09;5.00;99.90
3334;DHT22;1679;50.392;8.008;2023-02-25T09:36:39;5.40;99.90
3334;DHT22;1679;50.392;8.008;2023-02-25T09:39:05;5.60;99.90
3334;DHT22;1679;50.392;8.008;2023-02-25T09:41:52;5.90;99.90
3334;DHT22;1679;50.392;8.008;2023-02-25T09:44:21;6.10;99.90
3334;DHT22;1679;50.392;8.008;2023-02-25T09:46:55;6.40;99.90
3334;DHT22;1679;50.392;8.008;2023-02-25T09:52:34;6.40;99.90
3334;DHT22;1679;50.392;8.008;2023-02-25T09:55:51;6.40;99.90
3334;DHT22;1679;50.392;8.008;2023-02-25T09:58:25;6.10;99.90
3334;DHT22;1679;50.392;8.008;2023-02-25T10:03:55;6.30;99.90
3334;DHT22;1679;50.392;8.008;2023-02-25T10:09:15;6.40;99.90
3334;DHT22;1679;50.392;8.008;2023-02-25T10:12:29;6.60;99.90
3334;DHT22;1679;50.392;8.008;2023-02-25T10:15:03;6.30;99.90
3334;DHT22;1679;50.392;8.008;2023-02-25T10:17:56;6.00;99.90
3334;DHT22;1679;50.392;8.008;2023-02-25T10:20:59;5.80;99.90
3334;DHT22;1679;50.392;8.008;2023-02-25T10:23:51;5.60;99.90
3334;DHT22;1679;50.392;8.008;2023-02-25T10:26:26;5.50;99.90
3334;DHT22;1679;50.392;8.008;2023-02-25T10:28:57;5.30;99.90
3334;DHT22;1679;50.392;8.008;2023-02-25T10:31:25;5.20;99.90
3334;DHT22;1679;50.392;8.008;2023-02-25T10:33:52;5.10;99.90
3334;DHT22;1679;50.392;8.008;2023-02-25T10:36:24;5.00;99.90
3334;DHT22;1679;50.392;8.008;2023-02-25T10:38:54;5.00;99.90
3334;DHT22;1679;50.392;8.008;2023-02-25T10:41:21;4.90;99.90
3334;DHT22;1679;50.392;8.008;2023-02-25T10:43:49;4.80;99.90
3334;DHT22;1679;50.392;8.008;2023-02-25T10:46:17;4.90;99.90
3334;DHT22;1679;50.392;8.008;2023-02-25T10:48:49;4.90;99.90
3334;DHT22;1679;50.392;8.008;2023-02-25T10:51:17;5.00;99.90
3334;DHT22;1679;50.392;8.008;2023-02-25T10:56:19;5.00;99.90
3334;DHT22;1679;50.392;8.008;2023-02-25T10:59:02;5.00;99.90
3334;DHT22;1679;50.392;8.008;2023-02-25T11:01:40;4.80;99.90
3334;DHT22;1679;50.392;8.008;2023-02-25T11:04:12;4.00;99.90
3334;DHT22;1679;50.392;8.008;2023-02-25T11:06:40;3.10;99.90
3334;DHT22;1679;50.392;8.008;2023-02-25T11:09:28;2.60;99.90
3334;DHT22;1679;50.392;8.008;2023-02-25T11:12:10;2.40;99.90
3334;DHT22;1679;50.392;8.008;2023-02-25T11:14:37;2.40;99.90
3334;DHT22;1679;50.392;8.008;2023-02-25T11:17:10;2.40;99.90
3334;DHT22;1679;50.392;8.008;2023-02-25T11:19:47;2.50;99.90
3334;DHT22;1679;50.392;8.008;2023-02-25T11:22:17;2.40;99.90
3334;DHT22;1679;50.392;8.008;2023-02-25T11:24:59;2.50;99.90
3334;DHT22;1679;50.392;8.008;2023-02-25T11:27:39;2.70;99.90
3334;DHT22;1679;50.392;8.008;2023-02-25T11:30:14;3.00;99.90
3334;DHT22;1679;50.392;8.008;2023-02-25T11:32:46;3.20;99.90
3334;DHT22;1679;50.392;8.008;2023-02-25T11:35:18;3.30;99.90
3334;DHT22;1679;50.392;8.008;2023-02-25T11:37:44;3.30;99.90
3334;DHT22;1679;50.392;8.008;2023-02-25T11:40:23;3.30;99.90
3334;DHT22;1679;50.392;8.008;2023-02-25T11:45:32;3.10;99.90
3334;DHT22;1679;50.392;8.008;2023-02-25T11:47:59;3.30;99.90
3334;DHT22;1679;50.392;8.008;2023-02-25T11:50:45;3.50;99.90
3334;DHT22;1679;50.392;8.008;2023-02-25T11:53:36;3.90;99.90
3334;DHT22;1679;50.392;8.008;2023-02-25T11:56:20;4.10;99.90
3334;DHT22;1679;50.392;8.008;2023-02-25T11:59:13;4.30;99.90
3334;DHT22;1679;50.392;8.008;2023-02-25T12:04:43;4.50;99.90
3334;DHT22;1679;50.392;8.008;2023-02-25T12:15:39;4.70;99.90
3334;DHT22;1679;50.392;8.008;2023-02-25T12:18:32;5.00;99.90
3334;DHT22;1679;50.392;8.008;2023-02-25T12:32:21;5.20;99.90
3334;DHT22;1679;50.392;8.008;2023-02-25T12:37:55;5.50;99.90
3334;DHT22;1679;50.392;8.008;2023-02-25T12:40:59;5.40;99.90
3334;DHT22;1679;50.392;8.008;2023-02-25T12:43:30;5.30;99.90
3334;DHT22;1679;50.392;8.008;2023-02-25T12:46:04;5.30;99.90
3334;DHT22;1679;50.392;8.008;2023-02-25T12:54:59;5.10;99.90
3334;DHT22;1679;50.392;8.008;2023-02-25T12:57:38;5.20;99.90
3334;DHT22;1679;50.392;8.008;2023-02-25T13:02:49;5.00;99.90
3334;DHT22;1679;50.392;8.008;2023-02-25T13:08:18;4.80;99.90
3334;DHT22;1679;50.392;8.008;2023-02-25T13:11:19;4.80;99.90
3334;DHT22;1679;50.392;8.008;2023-02-25T13:14:03;4.90;99.90
3334;DHT22;1679;50.392;8.008;2023-02-25T13:16:45;5.20;99.90
3334;DHT22;1679;50.392;8.008;2023-02-25T13:23:03;5.30;99.90
3334;DHT22;1679;50.392;8.008;2023-02-25T13:26:01;5.50;99.90
3334;DHT22;1679;50.392;8.008;2023-02-25T13:29:11;5.60;99.90
3334;DHT22;1679;50.392;8.008;2023-02-25T13:32:08;5.50;99.90
3334;DHT22;1679;50.392;8.008;2023-02-25T13:46:18;5.70;99.90
3334;DHT22;1679;50.392;8.008;2023-02-25T13:48:54;5.80;99.90
3334;DHT22;1679;50.392;8.008;2023-02-25T13:57:29;5.90;99.90
3334;DHT22;1679;50.392;8.008;2023-02-25T14:05:20;5.90;99.90
3334;DHT22;1679;50.392;8.008;2023-02-25T14:13:41;5.60;99.90
3334;DHT22;1679;50.392;8.008;2023-02-25T14:16:27;5.50;99.90
3334;DHT22;1679;50.392;8.008;2023-02-25T14:24:22;5.30;99.90
3334;DHT22;1679;50.392;8.008;2023-02-25T14:43:58;4.80;99.90
3334;DHT22;1679;50.392;8.008;2023-02-25T14:46:35;4.80;99.90
3334;DHT22;1679;50.392;8.008;2023-02-25T14:49:20;4.80;99.90
3334;DHT22;1679;50.392;8.008;2023-02-25T14:52:02;4.70;99.90
3334;DHT22;1679;50.392;8.008;2023-02-25T15:00:20;4.80;99.90
3334;DHT22;1679;50.392;8.008;2023-02-25T15:09:06;4.80;99.90
3334;DHT22;1679;50.392;8.008;2023-02-25T15:11:54;4.80;99.90
3334;DHT22;1679;50.392;8.008;2023-02-25T15:17:27;5.10;99.90
3334;DHT22;1679;50.392;8.008;2023-02-25T15:20:31;5.20;99.90
3334;DHT22;1679;50.392;8.008;2023-02-25T15:23:08;5.10;99.90
3334;DHT22;1679;50.392;8.008;2023-02-25T15:26:17;5.10;99.90
3334;DHT22;1679;50.392;8.008;2023-02-25T15:38:49;4.80;99.90
3334;DHT22;1679;50.392;8.008;2023-02-25T15:59:48;4.30;99.90
3334;DHT22;1679;50.392;8.008;2023-02-25T16:05:04;4.20;99.90
3334;DHT22;1679;50.392;8.008;2023-02-25T16:07:42;4.10;99.90
3334;DHT22;1679;50.392;8.008;2023-02-25T16:10:24;4.00;99.90
3334;DHT22;1679;50.392;8.008;2023-02-25T16:12:53;3.90;99.90
3334;DHT22;1679;50.392;8.008;2023-02-25T16:15:44;3.80;99.90
3334;DHT22;1679;50.392;8.008;2023-02-25T16:18:36;3.80;99.90
3334;DHT22;1679;50.392;8.008;2023-02-25T16:21:07;3.70;99.90
3334;DHT22;1679;50.392;8.008;2023-02-25T16:23:38;3.70;99.90
3334;DHT22;1679;50.392;8.008;2023-02-25T16:31:48;3.70;99.90
3334;DHT22;1679;50.392;8.008;2023-02-25T16:34:27;3.70;99.90
3334;DHT22;1679;50.392;8.008;2023-02-25T16:37:03;3.80;99.90
3334;DHT22;1679;50.392;8.008;2023-02-25T16:39:31;3.70;99.90
3334;DHT22;1679;50.392;8.008;2023-02-25T16:42:10;3.70;99.90
3334;DHT22;1679;50.392;8.008;2023-02-25T16:44:37;3.70;99.90
3334;DHT22;1679;50.392;8.008;2023-02-25T16:47:25;3.70;99.90
3334;DHT22;1679;50.392;8.008;2023-02-25T16:49:51;3.70;99.90
3334;DHT22;1679;50.392;8.008;2023-02-25T16:52:48;3.60;99.90
3334;DHT22;1679;50.392;8.008;2023-02-25T16:55:20;3.60;99.90
3334;DHT22;1679;50.392;8.008;2023-02-25T17:00:57;3.50;99.90
3334;DHT22;1679;50.392;8.008;2023-02-25T17:03:30;3.40;99.90
3334;DHT22;1679;50.392;8.008;2023-02-25T17:06:23;3.40;99.90
3334;DHT22;1679;50.392;8.008;2023-02-25T17:08:49;3.30;99.90
3334;DHT22;1679;50.392;8.008;2023-02-25T17:11:20;3.30;99.90
3334;DHT22;1679;50.392;8.008;2023-02-25T17:13:47;3.20;99.90
3334;DHT22;1679;50.392;8.008;2023-02-25T17:16:39;3.20;99.90
3334;DHT22;1679;50.392;8.008;2023-02-25T17:19:07;3.10;99.90
3334;DHT22;1679;50.392;8.008;2023-02-25T17:21:39;3.00;99.90
3334;DHT22;1679;50.392;8.008;2023-02-25T17:24:13;3.00;99.90
3334;DHT22;1679;50.392;8.008;2023-02-25T17:26:43;2.90;99.90
3334;DHT22;1679;50.392;8.008;2023-02-25T17:29:12;2.90;99.90
3334;DHT22;1679;50.392;8.008;2023-02-25T17:31:54;2.80;99.90
3334;DHT22;1679;50.392;8.008;2023-02-25T17:34:31;2.80;99.90
3334;DHT22;1679;50.392;8.008;2023-02-25T17:37:01;2.70;99.90
3334;DHT22;1679;50.392;8.008;2023-02-25T17:39:28;2.70;99.90
3334;DHT22;1679;50.392;8.008;2023-02-25T17:41:54;2.70;99.90
3334;DHT22;1679;50.392;8.008;2023-02-25T17:47:07;2.60;99.90
3334;DHT22;1679;50.392;8.008;2023-02-25T17:49:35;2.60;99.90
3334;DHT22;1679;50.392;8.008;2023-02-25T17:52:22;2.50;99.90
3334;DHT22;1679;50.392;8.008;2023-02-25T17:55:22;2.50;99.90
3334;DHT22;1679;50.392;8.008;2023-02-25T17:57:48;2.50;99.90
3334;DHT22;1679;50.392;8.008;2023-02-25T18:00:21;2.50;99.90
3334;DHT22;1679;50.392;8.008;2023-02-25T18:03:14;2.50;99.90
3334;DHT22;1679;50.392;8.008;2023-02-25T18:08:24;2.50;99.90
3334;DHT22;1679;50.392;8.008;2023-02-25T18:11:19;2.50;99.90
3334;DHT22;1679;50.392;8.008;2023-02-25T18:13:46;2.50;99.90
3334;DHT22;1679;50.392;8.008;2023-02-25T18:18:54;2.50;99.90
3334;DHT22;1679;50.392;8.008;2023-02-25T18:21:21;2.50;99.90
3334;DHT22;1679;50.392;8.008;2023-02-25T18:23:47;2.50;99.90
3334;DHT22;1679;50.392;8.008;2023-02-25T18:26:19;2.50;99.90
3334;DHT22;1679;50.392;8.008;2023-02-25T18:28:45;2.50;99.90
3334;DHT22;1679;50.392;8.008;2023-02-25T18:31:12;2.50;99.90
3334;DHT22;1679;50.392;8.008;2023-02-25T18:33:39;2.50;99.90
3334;DHT22;1679;50.392;8.008;2023-02-25T18:36:06;2.40;99.90
3334;DHT22;1679;50.392;8.008;2023-02-25T18:38:33;2.40;99.90
3334;DHT22;1679;50.392;8.008;2023-02-25T18:41:02;2.30;99.90
3334;DHT22;1679;50.392;8.008;2023-02-25T18:43:31;2.30;99.90
3334;DHT22;1679;50.392;8.008;2023-02-25T18:45:59;2.30;99.90
3334;DHT22;1679;50.392;8.008;2023-02-25T18:48:25;2.20;99.90
3334;DHT22;1679;50.392;8.008;2023-02-25T18:50:51;2.20;99.90
3334;DHT22;1679;50.392;8.008;2023-02-25T18:53:23;2.10;99.90
3334;DHT22;1679;50.392;8.008;2023-02-25T18:55:52;2.10;99.90
3334;DHT22;1679;50.392;8.008;2023-02-25T18:58:18;2.00;99.90
3334;DHT22;1679;50.392;8.008;2023-02-25T19:00:49;1.90;99.90
3334;DHT22;1679;50.392;8.008;2023-02-25T19:03:18;1.80;99.90
3334;DHT22;1679;50.392;8.008;2023-02-25T19:05:45;1.80;99.90
3334;DHT22;1679;50.392;8.008;2023-02-25T19:08:12;1.90;99.90
3334;DHT22;1679;50.392;8.008;2023-02-25T19:10:38;1.80;99.90
3334;DHT22;1679;50.392;8.008;2023-02-25T19:13:06;1.70;99.90
3334;DHT22;1679;50.392;8.008;2023-02-25T19:15:33;1.70;99.90
3334;DHT22;1679;50.392;8.008;2023-02-25T19:17:59;1.70;99.90
3334;DHT22;1679;50.392;8.008;2023-02-25T19:20:25;1.70;99.90
3334;DHT22;1679;50.392;8.008;2023-02-25T19:22:52;1.80;99.90
3334;DHT22;1679;50.392;8.008;2023-02-25T19:25:21;1.90;99.90
3334;DHT22;1679;50.392;8.008;2023-02-25T19:27:47;1.80;99.90
3334;DHT22;1679;50.392;8.008;2023-02-25T19:30:15;1.70;99.90
3334;DHT22;1679;50.392;8.008;2023-02-25T19:32:42;1.70;99.90
3334;DHT22;1679;50.392;8.008;2023-02-25T19:35:08;1.70;99.90
3334;DHT22;1679;50.392;8.008;2023-02-25T19:37:36;1.70;99.90
3334;DHT22;1679;50.392;8.008;2023-02-25T19:40:03;1.70;99.90
3334;DHT22;1679;50.392;8.008;2023-02-25T19:42:29;1.60;99.90
3334;DHT22;1679;50.392;8.008;2023-02-25T19:47:27;1.70;99.90
3334;DHT22;1679;50.392;8.008;2023-02-25T19:49:53;1.80;99.90
3334;DHT22;1679;50.392;8.008;2023-02-25T19:52:18;1.70;99.90
3334;DHT22;1679;50.392;8.008;2023-02-25T19:54:44;1.70;99.90
3334;DHT22;1679;50.392;8.008;2023-02-25T19:57:11;1.70;99.90
3334;DHT22;1679;50.392;8.008;2023-02-25T19:59:36;1.60;99.90
3334;DHT22;1679;50.392;8.008;2023-02-25T20:02:02;1.60;99.90
3334;DHT22;1679;50.392;8.008;2023-02-25T20:04:29;1.60;99.90